sensor_id;sensor_type;location;lat;lon;timestamp;P1;durP1;ratioP1;P2;durP2;ratioP2
23632;SDS011;11993;48.748;9.166;2022-12-24T00:02:10;5.00;;;1.95;;
23632;SDS011;11993;48.748;9.166;2022-12-24T00:04:36;8.18;;;1.83;;
23632;SDS011;11993;48.748;9.166;2022-12-24T00:07:01;7.95;;;1.58;;
23632;SDS011;11993;48.748;9.166;2022-12-24T00:09:27;9.32;;;2.05;;
23632;SDS011;11993;48.748;9.166;2022-12-24T00:11:52;7.10;;;1.90;;
23632;SDS011;11993;48.748;9.166;2022-12-24T00:14:18;6.20;;;1.48;;
23632;SDS011;11993;48.748;9.166;2022-12-24T00:16:43;7.10;;;1.88;;
23632;SDS011;11993;48.748;9.166;2022-12-24T00:19:09;6.88;;;1.63;;
23632;SDS011;11993;48.748;9.166;2022-12-24T00:21:34;11.85;;;2.22;;
23632;SDS011;11993;48.748;9.166;2022-12-24T00:24:00;11.23;;;2.35;;
23632;SDS011;11993;48.748;9.166;2022-12-24T00:26:28;5.57;;;1.73;;
23632;SDS011;11993;48.748;9.166;2022-12-24T00:28:53;4.60;;;1.92;;
23632;SDS011;11993;48.748;9.166;2022-12-24T00:31:19;9.70;;;2.28;;
23632;SDS011;11993;48.748;9.166;2022-12-24T00:33:45;8.45;;;1.90;;
23632;SDS011;11993;48.748;9.166;2022-12-24T00:36:11;8.15;;;1.80;;
23632;SDS011;11993;48.748;9.166;2022-12-24T00:38:38;6.15;;;1.60;;
23632;SDS011;11993;48.748;9.166;2022-12-24T00:41:04;6.15;;;1.98;;
23632;SDS011;11993;48.748;9.166;2022-12-24T00:43:48;7.03;;;1.67;;
23632;SDS011;11993;48.748;9.166;2022-12-24T00:46:24;10.65;;;2.22;;
23632;SDS011;11993;48.748;9.166;2022-12-24T00:48:51;5.40;;;1.73;;
23632;SDS011;11993;48.748;9.166;2022-12-24T00:51:17;11.65;;;2.38;;
23632;SDS011;11993;48.748;9.166;2022-12-24T00:53:43;8.85;;;1.88;;
23632;SDS011;11993;48.748;9.166;2022-12-24T00:56:09;6.57;;;1.70;;
23632;SDS011;11993;48.748;9.166;2022-12-24T00:58:34;9.48;;;2.20;;
23632;SDS011;11993;48.748;9.166;2022-12-24T01:01:00;8.43;;;1.65;;
23632;SDS011;11993;48.748;9.166;2022-12-24T01:03:26;6.05;;;1.98;;
23632;SDS011;11993;48.748;9.166;2022-12-24T01:06:05;9.82;;;2.58;;
23632;SDS011;11993;48.748;9.166;2022-12-24T01:08:35;6.78;;;1.63;;
23632;SDS011;11993;48.748;9.166;2022-12-24T01:11:01;7.63;;;2.00;;
23632;SDS011;11993;48.748;9.166;2022-12-24T01:13:29;8.55;;;1.92;;
23632;SDS011;11993;48.748;9.166;2022-12-24T01:15:54;8.82;;;2.00;;
23632;SDS011;11993;48.748;9.166;2022-12-24T01:18:20;7.97;;;1.80;;
23632;SDS011;11993;48.748;9.166;2022-12-24T01:20:56;7.00;;;2.10;;
23632;SDS011;11993;48.748;9.166;2022-12-24T01:23:23;4.97;;;1.50;;
23632;SDS011;11993;48.748;9.166;2022-12-24T01:25:49;8.45;;;1.83;;
23632;SDS011;11993;48.748;9.166;2022-12-24T01:28:14;9.57;;;2.03;;
23632;SDS011;11993;48.748;9.166;2022-12-24T01:30:40;9.65;;;1.80;;
23632;SDS011;11993;48.748;9.166;2022-12-24T01:33:06;10.77;;;2.63;;
23632;SDS011;11993;48.748;9.166;2022-12-24T01:35:31;7.88;;;1.90;;
23632;SDS011;11993;48.748;9.166;2022-12-24T01:37:57;10.52;;;2.38;;
23632;SDS011;11993;48.748;9.166;2022-12-24T01:40:24;8.77;;;2.03;;
23632;SDS011;11993;48.748;9.166;2022-12-24T01:43:14;13.70;;;2.58;;
23632;SDS011;11993;48.748;9.166;2022-12-24T01:48:24;8.60;;;2.00;;
23632;SDS011;11993;48.748;9.166;2022-12-24T01:50:55;9.52;;;2.30;;
23632;SDS011;11993;48.748;9.166;2022-12-24T01:53:24;9.93;;;2.35;;
23632;SDS011;11993;48.748;9.166;2022-12-24T01:55:50;6.72;;;2.03;;
23632;SDS011;11993;48.748;9.166;2022-12-24T01:58:17;8.18;;;2.42;;
23632;SDS011;11993;48.748;9.166;2022-12-24T02:00:45;6.38;;;1.90;;
23632;SDS011;11993;48.748;9.166;2022-12-24T02:03:11;9.57;;;2.25;;
23632;SDS011;11993;48.748;9.166;2022-12-24T02:05:48;7.68;;;2.30;;
23632;SDS011;11993;48.748;9.166;2022-12-24T02:08:18;8.15;;;2.42;;
23632;SDS011;11993;48.748;9.166;2022-12-24T02:10:44;9.88;;;2.20;;
23632;SDS011;11993;48.748;9.166;2022-12-24T02:13:11;9.30;;;2.35;;
23632;SDS011;11993;48.748;9.166;2022-12-24T02:15:46;10.73;;;2.53;;
23632;SDS011;11993;48.748;9.166;2022-12-24T02:32:03;9.95;;;2.47;;
23632;SDS011;11993;48.748;9.166;2022-12-24T02:34:36;10.40;;;2.05;;
23632;SDS011;11993;48.748;9.166;2022-12-24T02:37:18;15.18;;;2.60;;
23632;SDS011;11993;48.748;9.166;2022-12-24T02:39:51;9.32;;;3.15;;
23632;SDS011;11993;48.748;9.166;2022-12-24T02:42:28;10.80;;;2.33;;
23632;SDS011;11993;48.748;9.166;2022-12-24T02:47:31;14.15;;;2.97;;
23632;SDS011;11993;48.748;9.166;2022-12-24T02:49:59;13.15;;;2.45;;
23632;SDS011;11993;48.748;9.166;2022-12-24T02:52:44;13.98;;;3.47;;
23632;SDS011;11993;48.748;9.166;2022-12-24T02:55:18;19.15;;;3.45;;
23632;SDS011;11993;48.748;9.166;2022-12-24T03:06:18;9.60;;;2.28;;
23632;SDS011;11993;48.748;9.166;2022-12-24T03:08:57;13.20;;;2.85;;
23632;SDS011;11993;48.748;9.166;2022-12-24T03:11:29;14.02;;;2.92;;
23632;SDS011;11993;48.748;9.166;2022-12-24T03:13:55;11.60;;;2.78;;
23632;SDS011;11993;48.748;9.166;2022-12-24T03:16:23;13.70;;;2.70;;
23632;SDS011;11993;48.748;9.166;2022-12-24T03:18:51;14.77;;;2.63;;
23632;SDS011;11993;48.748;9.166;2022-12-24T03:21:30;14.02;;;2.72;;
23632;SDS011;11993;48.748;9.166;2022-12-24T03:23:58;10.60;;;2.22;;
23632;SDS011;11993;48.748;9.166;2022-12-24T03:26:25;11.70;;;2.95;;
23632;SDS011;11993;48.748;9.166;2022-12-24T03:28:52;16.38;;;2.58;;
23632;SDS011;11993;48.748;9.166;2022-12-24T03:31:18;16.00;;;3.25;;
23632;SDS011;11993;48.748;9.166;2022-12-24T03:33:45;12.25;;;2.80;;
23632;SDS011;11993;48.748;9.166;2022-12-24T03:36:10;11.32;;;2.92;;
23632;SDS011;11993;48.748;9.166;2022-12-24T03:38:36;12.43;;;2.97;;
23632;SDS011;11993;48.748;9.166;2022-12-24T03:41:02;13.70;;;2.65;;
23632;SDS011;11993;48.748;9.166;2022-12-24T03:43:28;12.95;;;3.05;;
23632;SDS011;11993;48.748;9.166;2022-12-24T03:45:54;9.95;;;3.05;;
23632;SDS011;11993;48.748;9.166;2022-12-24T03:48:19;12.75;;;2.85;;
23632;SDS011;11993;48.748;9.166;2022-12-24T03:50:45;12.45;;;2.63;;
23632;SDS011;11993;48.748;9.166;2022-12-24T03:53:10;13.57;;;2.67;;
23632;SDS011;11993;48.748;9.166;2022-12-24T03:55:36;10.93;;;2.55;;
23632;SDS011;11993;48.748;9.166;2022-12-24T03:58:03;11.65;;;2.60;;
23632;SDS011;11993;48.748;9.166;2022-12-24T04:00:28;11.35;;;2.60;;
23632;SDS011;11993;48.748;9.166;2022-12-24T04:02:54;10.48;;;2.25;;
23632;SDS011;11993;48.748;9.166;2022-12-24T04:05:20;9.77;;;2.20;;
23632;SDS011;11993;48.748;9.166;2022-12-24T04:07:45;10.75;;;2.53;;
23632;SDS011;11993;48.748;9.166;2022-12-24T04:10:11;8.93;;;2.53;;
23632;SDS011;11993;48.748;9.166;2022-12-24T04:12:38;12.52;;;2.95;;
23632;SDS011;11993;48.748;9.166;2022-12-24T04:15:03;15.00;;;2.55;;
23632;SDS011;11993;48.748;9.166;2022-12-24T04:17:30;9.65;;;2.78;;
23632;SDS011;11993;48.748;9.166;2022-12-24T04:19:56;12.32;;;3.10;;
23632;SDS011;11993;48.748;9.166;2022-12-24T04:22:21;15.35;;;2.80;;
23632;SDS011;11993;48.748;9.166;2022-12-24T04:24:47;13.48;;;3.35;;
23632;SDS011;11993;48.748;9.166;2022-12-24T04:27:13;11.02;;;2.80;;
23632;SDS011;11993;48.748;9.166;2022-12-24T04:29:39;13.65;;;2.60;;
23632;SDS011;11993;48.748;9.166;2022-12-24T04:32:05;12.07;;;2.75;;
23632;SDS011;11993;48.748;9.166;2022-12-24T04:34:30;13.07;;;2.60;;
23632;SDS011;11993;48.748;9.166;2022-12-24T04:36:56;12.73;;;2.75;;
23632;SDS011;11993;48.748;9.166;2022-12-24T04:39:21;11.43;;;2.53;;
23632;SDS011;11993;48.748;9.166;2022-12-24T04:41:47;12.65;;;2.70;;
23632;SDS011;11993;48.748;9.166;2022-12-24T04:44:12;11.65;;;2.30;;
23632;SDS011;11993;48.748;9.166;2022-12-24T04:46:38;11.90;;;2.55;;
23632;SDS011;11993;48.748;9.166;2022-12-24T04:49:05;13.70;;;2.53;;
23632;SDS011;11993;48.748;9.166;2022-12-24T04:51:30;10.98;;;2.25;;
23632;SDS011;11993;48.748;9.166;2022-12-24T04:53:56;14.00;;;2.83;;
23632;SDS011;11993;48.748;9.166;2022-12-24T04:56:26;10.68;;;2.55;;
23632;SDS011;11993;48.748;9.166;2022-12-24T04:58:54;7.28;;;2.45;;
23632;SDS011;11993;48.748;9.166;2022-12-24T05:01:22;12.05;;;2.10;;
23632;SDS011;11993;48.748;9.166;2022-12-24T05:03:48;10.65;;;2.55;;
23632;SDS011;11993;48.748;9.166;2022-12-24T05:06:16;9.07;;;2.28;;
23632;SDS011;11993;48.748;9.166;2022-12-24T05:08:43;16.42;;;2.97;;
23632;SDS011;11993;48.748;9.166;2022-12-24T05:11:10;7.53;;;2.30;;
23632;SDS011;11993;48.748;9.166;2022-12-24T05:13:38;11.20;;;2.70;;
23632;SDS011;11993;48.748;9.166;2022-12-24T05:16:05;14.00;;;2.33;;
23632;SDS011;11993;48.748;9.166;2022-12-24T05:18:31;10.65;;;2.25;;
23632;SDS011;11993;48.748;9.166;2022-12-24T05:20:56;10.98;;;2.38;;
23632;SDS011;11993;48.748;9.166;2022-12-24T05:23:22;8.75;;;2.65;;
23632;SDS011;11993;48.748;9.166;2022-12-24T05:26:18;8.73;;;2.30;;
23632;SDS011;11993;48.748;9.166;2022-12-24T05:28:52;13.18;;;2.83;;
23632;SDS011;11993;48.748;9.166;2022-12-24T05:31:20;14.55;;;2.80;;
23632;SDS011;11993;48.748;9.166;2022-12-24T05:33:46;16.27;;;3.00;;
23632;SDS011;11993;48.748;9.166;2022-12-24T05:36:13;14.93;;;3.35;;
23632;SDS011;11993;48.748;9.166;2022-12-24T05:38:38;13.13;;;2.53;;
23632;SDS011;11993;48.748;9.166;2022-12-24T05:41:04;13.85;;;3.45;;
23632;SDS011;11993;48.748;9.166;2022-12-24T05:43:30;15.90;;;2.85;;
23632;SDS011;11993;48.748;9.166;2022-12-24T05:46:00;17.10;;;2.85;;
23632;SDS011;11993;48.748;9.166;2022-12-24T05:48:27;10.23;;;2.90;;
23632;SDS011;11993;48.748;9.166;2022-12-24T05:50:53;13.57;;;2.90;;
23632;SDS011;11993;48.748;9.166;2022-12-24T05:53:19;9.32;;;2.08;;
23632;SDS011;11993;48.748;9.166;2022-12-24T05:55:45;12.50;;;3.03;;
23632;SDS011;11993;48.748;9.166;2022-12-24T05:58:10;13.60;;;2.65;;
23632;SDS011;11993;48.748;9.166;2022-12-24T06:00:36;10.25;;;2.53;;
23632;SDS011;11993;48.748;9.166;2022-12-24T06:03:01;10.52;;;3.15;;
23632;SDS011;11993;48.748;9.166;2022-12-24T06:05:27;8.88;;;2.58;;
23632;SDS011;11993;48.748;9.166;2022-12-24T06:07:53;12.98;;;2.55;;
23632;SDS011;11993;48.748;9.166;2022-12-24T06:10:18;15.60;;;3.10;;
23632;SDS011;11993;48.748;9.166;2022-12-24T06:12:44;10.18;;;3.03;;
23632;SDS011;11993;48.748;9.166;2022-12-24T06:15:10;16.02;;;3.40;;
23632;SDS011;11993;48.748;9.166;2022-12-24T06:17:35;7.97;;;2.55;;
23632;SDS011;11993;48.748;9.166;2022-12-24T06:20:01;10.70;;;2.22;;
23632;SDS011;11993;48.748;9.166;2022-12-24T06:22:27;10.82;;;2.88;;
23632;SDS011;11993;48.748;9.166;2022-12-24T06:24:53;11.32;;;2.70;;
23632;SDS011;11993;48.748;9.166;2022-12-24T06:27:18;14.55;;;2.65;;
23632;SDS011;11993;48.748;9.166;2022-12-24T06:29:44;15.48;;;2.63;;
23632;SDS011;11993;48.748;9.166;2022-12-24T06:32:09;12.73;;;2.65;;
23632;SDS011;11993;48.748;9.166;2022-12-24T06:34:35;10.23;;;2.58;;
23632;SDS011;11993;48.748;9.166;2022-12-24T06:37:00;9.55;;;2.30;;
23632;SDS011;11993;48.748;9.166;2022-12-24T06:39:26;7.63;;;2.13;;
23632;SDS011;11993;48.748;9.166;2022-12-24T06:41:52;7.60;;;2.38;;
23632;SDS011;11993;48.748;9.166;2022-12-24T06:44:17;11.77;;;2.17;;
23632;SDS011;11993;48.748;9.166;2022-12-24T06:46:43;7.60;;;2.35;;
23632;SDS011;11993;48.748;9.166;2022-12-24T06:49:08;11.10;;;2.55;;
23632;SDS011;11993;48.748;9.166;2022-12-24T06:51:34;12.10;;;2.58;;
23632;SDS011;11993;48.748;9.166;2022-12-24T06:53:59;9.40;;;2.13;;
23632;SDS011;11993;48.748;9.166;2022-12-24T06:56:25;9.90;;;2.83;;
23632;SDS011;11993;48.748;9.166;2022-12-24T06:58:51;9.25;;;2.60;;
23632;SDS011;11993;48.748;9.166;2022-12-24T07:01:17;9.00;;;2.60;;
23632;SDS011;11993;48.748;9.166;2022-12-24T07:03:43;8.20;;;2.03;;
23632;SDS011;11993;48.748;9.166;2022-12-24T07:06:23;9.68;;;2.58;;
23632;SDS011;11993;48.748;9.166;2022-12-24T07:08:50;10.00;;;2.67;;
23632;SDS011;11993;48.748;9.166;2022-12-24T07:11:17;9.20;;;2.40;;
23632;SDS011;11993;48.748;9.166;2022-12-24T07:13:43;8.40;;;2.38;;
23632;SDS011;11993;48.748;9.166;2022-12-24T07:16:08;11.88;;;2.63;;
23632;SDS011;11993;48.748;9.166;2022-12-24T07:18:34;14.00;;;2.78;;
23632;SDS011;11993;48.748;9.166;2022-12-24T07:21:01;11.93;;;2.78;;
23632;SDS011;11993;48.748;9.166;2022-12-24T07:23:28;9.07;;;2.30;;
23632;SDS011;11993;48.748;9.166;2022-12-24T07:25:55;11.52;;;2.75;;
23632;SDS011;11993;48.748;9.166;2022-12-24T07:28:27;12.85;;;2.85;;
23632;SDS011;11993;48.748;9.166;2022-12-24T07:30:53;16.63;;;2.75;;
23632;SDS011;11993;48.748;9.166;2022-12-24T07:33:19;10.30;;;3.15;;
23632;SDS011;11993;48.748;9.166;2022-12-24T07:35:44;12.43;;;3.05;;
23632;SDS011;11993;48.748;9.166;2022-12-24T07:38:10;13.32;;;2.80;;
23632;SDS011;11993;48.748;9.166;2022-12-24T07:40:36;9.82;;;2.70;;
23632;SDS011;11993;48.748;9.166;2022-12-24T07:43:01;11.55;;;2.65;;
23632;SDS011;11993;48.748;9.166;2022-12-24T07:45:27;9.98;;;2.38;;
23632;SDS011;11993;48.748;9.166;2022-12-24T07:47:52;11.25;;;2.67;;
23632;SDS011;11993;48.748;9.166;2022-12-24T07:50:17;14.63;;;2.70;;
23632;SDS011;11993;48.748;9.166;2022-12-24T07:52:43;8.68;;;2.60;;
23632;SDS011;11993;48.748;9.166;2022-12-24T07:55:09;9.98;;;2.90;;
23632;SDS011;11993;48.748;9.166;2022-12-24T07:57:34;8.13;;;3.08;;
23632;SDS011;11993;48.748;9.166;2022-12-24T08:00:00;13.57;;;2.80;;
23632;SDS011;11993;48.748;9.166;2022-12-24T08:02:25;11.23;;;3.28;;
23632;SDS011;11993;48.748;9.166;2022-12-24T08:04:51;7.15;;;2.67;;
23632;SDS011;11993;48.748;9.166;2022-12-24T08:07:16;8.23;;;2.72;;
23632;SDS011;11993;48.748;9.166;2022-12-24T08:09:42;13.00;;;2.83;;
23632;SDS011;11993;48.748;9.166;2022-12-24T08:12:09;11.13;;;2.60;;
23632;SDS011;11993;48.748;9.166;2022-12-24T08:14:35;12.90;;;3.20;;
23632;SDS011;11993;48.748;9.166;2022-12-24T08:17:00;14.35;;;2.88;;
23632;SDS011;11993;48.748;9.166;2022-12-24T08:19:26;12.65;;;3.10;;
23632;SDS011;11993;48.748;9.166;2022-12-24T08:21:52;11.35;;;2.80;;
23632;SDS011;11993;48.748;9.166;2022-12-24T08:24:17;11.98;;;2.75;;
23632;SDS011;11993;48.748;9.166;2022-12-24T08:26:43;14.07;;;3.50;;
23632;SDS011;11993;48.748;9.166;2022-12-24T08:29:08;8.73;;;2.33;;
23632;SDS011;11993;48.748;9.166;2022-12-24T08:31:34;13.85;;;2.70;;
23632;SDS011;11993;48.748;9.166;2022-12-24T08:34:03;14.45;;;2.60;;
23632;SDS011;11993;48.748;9.166;2022-12-24T08:36:30;13.45;;;2.85;;
23632;SDS011;11993;48.748;9.166;2022-12-24T08:38:56;8.35;;;2.55;;
23632;SDS011;11993;48.748;9.166;2022-12-24T08:41:22;13.10;;;3.13;;
23632;SDS011;11993;48.748;9.166;2022-12-24T08:43:47;13.45;;;2.78;;
23632;SDS011;11993;48.748;9.166;2022-12-24T08:46:13;9.65;;;2.72;;
23632;SDS011;11993;48.748;9.166;2022-12-24T08:48:38;14.60;;;3.17;;
23632;SDS011;11993;48.748;9.166;2022-12-24T08:51:07;9.52;;;2.63;;
23632;SDS011;11993;48.748;9.166;2022-12-24T08:53:34;14.65;;;3.17;;
23632;SDS011;11993;48.748;9.166;2022-12-24T08:56:00;13.68;;;3.28;;
23632;SDS011;11993;48.748;9.166;2022-12-24T08:58:28;8.52;;;2.83;;
23632;SDS011;11993;48.748;9.166;2022-12-24T09:00:54;17.02;;;2.70;;
23632;SDS011;11993;48.748;9.166;2022-12-24T09:03:19;13.15;;;3.30;;
23632;SDS011;11993;48.748;9.166;2022-12-24T09:05:45;14.18;;;3.17;;
23632;SDS011;11993;48.748;9.166;2022-12-24T09:08:11;17.25;;;3.25;;
23632;SDS011;11993;48.748;9.166;2022-12-24T09:10:37;15.15;;;3.22;;
23632;SDS011;11993;48.748;9.166;2022-12-24T09:13:02;10.95;;;2.60;;
23632;SDS011;11993;48.748;9.166;2022-12-24T09:15:28;10.75;;;2.47;;
23632;SDS011;11993;48.748;9.166;2022-12-24T09:17:54;17.10;;;3.10;;
23632;SDS011;11993;48.748;9.166;2022-12-24T09:20:19;13.23;;;2.90;;
23632;SDS011;11993;48.748;9.166;2022-12-24T09:22:45;16.45;;;3.20;;
23632;SDS011;11993;48.748;9.166;2022-12-24T09:25:10;14.02;;;3.50;;
23632;SDS011;11993;48.748;9.166;2022-12-24T09:27:36;13.32;;;2.85;;
23632;SDS011;11993;48.748;9.166;2022-12-24T09:30:02;16.58;;;3.17;;
23632;SDS011;11993;48.748;9.166;2022-12-24T09:32:28;17.63;;;4.00;;
23632;SDS011;11993;48.748;9.166;2022-12-24T09:34:54;16.17;;;3.28;;
23632;SDS011;11993;48.748;9.166;2022-12-24T09:37:19;13.32;;;3.40;;
23632;SDS011;11993;48.748;9.166;2022-12-24T09:39:45;14.50;;;3.55;;
23632;SDS011;11993;48.748;9.166;2022-12-24T09:45:07;19.58;;;3.45;;
23632;SDS011;11993;48.748;9.166;2022-12-24T09:47:42;19.67;;;3.63;;
23632;SDS011;11993;48.748;9.166;2022-12-24T09:52:56;14.05;;;3.17;;
23632;SDS011;11993;48.748;9.166;2022-12-24T09:55:26;12.00;;;3.80;;
23632;SDS011;11993;48.748;9.166;2022-12-24T09:57:55;16.73;;;3.35;;
23632;SDS011;11993;48.748;9.166;2022-12-24T10:00:27;12.65;;;3.03;;
23632;SDS011;11993;48.748;9.166;2022-12-24T10:02:55;16.67;;;3.53;;
23632;SDS011;11993;48.748;9.166;2022-12-24T10:05:25;14.18;;;3.20;;
23632;SDS011;11993;48.748;9.166;2022-12-24T10:08:09;15.98;;;3.13;;
23632;SDS011;11993;48.748;9.166;2022-12-24T10:10:47;9.15;;;2.67;;
23632;SDS011;11993;48.748;9.166;2022-12-24T10:25:52;18.20;;;3.80;;
23632;SDS011;11993;48.748;9.166;2022-12-24T10:27:44;12.80;;;2.97;;
23632;SDS011;11993;48.748;9.166;2022-12-24T10:30:14;12.20;;;2.95;;
23632;SDS011;11993;48.748;9.166;2022-12-24T10:32:42;13.77;;;3.88;;
23632;SDS011;11993;48.748;9.166;2022-12-24T10:37:41;12.93;;;3.67;;
23632;SDS011;11993;48.748;9.166;2022-12-24T10:40:13;13.77;;;3.15;;
23632;SDS011;11993;48.748;9.166;2022-12-24T10:42:47;15.85;;;3.30;;
23632;SDS011;11993;48.748;9.166;2022-12-24T10:45:13;13.73;;;3.00;;
23632;SDS011;11993;48.748;9.166;2022-12-24T10:47:43;13.60;;;2.72;;
23632;SDS011;11993;48.748;9.166;2022-12-24T10:50:18;14.27;;;2.90;;
23632;SDS011;11993;48.748;9.166;2022-12-24T10:52:54;17.75;;;3.50;;
23632;SDS011;11993;48.748;9.166;2022-12-24T10:55:28;8.60;;;3.13;;
23632;SDS011;11993;48.748;9.166;2022-12-24T10:57:59;9.32;;;3.35;;
23632;SDS011;11993;48.748;9.166;2022-12-24T11:00:26;15.77;;;3.75;;
23632;SDS011;11993;48.748;9.166;2022-12-24T11:03:19;13.35;;;3.33;;
23632;SDS011;11993;48.748;9.166;2022-12-24T11:05:57;20.88;;;3.25;;
23632;SDS011;11993;48.748;9.166;2022-12-24T11:08:32;12.15;;;3.28;;
23632;SDS011;11993;48.748;9.166;2022-12-24T11:11:00;11.45;;;2.67;;
23632;SDS011;11993;48.748;9.166;2022-12-24T11:16:02;15.27;;;2.80;;
23632;SDS011;11993;48.748;9.166;2022-12-24T11:18:31;14.70;;;3.22;;
23632;SDS011;11993;48.748;9.166;2022-12-24T11:21:03;14.55;;;3.08;;
23632;SDS011;11993;48.748;9.166;2022-12-24T11:23:29;11.40;;;3.28;;
23632;SDS011;11993;48.748;9.166;2022-12-24T11:25:55;14.43;;;3.30;;
23632;SDS011;11993;48.748;9.166;2022-12-24T11:28:31;15.23;;;3.40;;
23632;SDS011;11993;48.748;9.166;2022-12-24T11:33:31;14.68;;;3.38;;
23632;SDS011;11993;48.748;9.166;2022-12-24T11:36:13;11.60;;;3.30;;
23632;SDS011;11993;48.748;9.166;2022-12-24T11:38:43;10.30;;;3.10;;
23632;SDS011;11993;48.748;9.166;2022-12-24T11:41:17;12.75;;;3.35;;
23632;SDS011;11993;48.748;9.166;2022-12-24T11:43:43;16.45;;;3.70;;
23632;SDS011;11993;48.748;9.166;2022-12-24T11:46:15;14.73;;;3.15;;
23632;SDS011;11993;48.748;9.166;2022-12-24T11:51:36;9.80;;;2.88;;
23632;SDS011;11993;48.748;9.166;2022-12-24T11:54:21;19.95;;;3.15;;
23632;SDS011;11993;48.748;9.166;2022-12-24T11:56:52;14.10;;;3.03;;
23632;SDS011;11993;48.748;9.166;2022-12-24T11:59:28;14.80;;;2.80;;
23632;SDS011;11993;48.748;9.166;2022-12-24T12:04:57;16.38;;;2.88;;
23632;SDS011;11993;48.748;9.166;2022-12-24T12:07:28;20.48;;;3.08;;
23632;SDS011;11993;48.748;9.166;2022-12-24T12:12:24;16.67;;;3.75;;
23632;SDS011;11993;48.748;9.166;2022-12-24T12:23:10;18.38;;;3.33;;
23632;SDS011;11993;48.748;9.166;2022-12-24T12:28:22;18.52;;;4.82;;
23632;SDS011;11993;48.748;9.166;2022-12-24T12:31:02;12.10;;;2.83;;
23632;SDS011;11993;48.748;9.166;2022-12-24T12:33:40;15.93;;;3.40;;
23632;SDS011;11993;48.748;9.166;2022-12-24T12:36:18;9.60;;;2.80;;
23632;SDS011;11993;48.748;9.166;2022-12-24T12:38:49;14.35;;;3.40;;
23632;SDS011;11993;48.748;9.166;2022-12-24T12:46:48;15.00;;;4.00;;
23632;SDS011;11993;48.748;9.166;2022-12-24T12:49:39;17.55;;;4.25;;
23632;SDS011;11993;48.748;9.166;2022-12-24T12:57:43;16.45;;;3.30;;
23632;SDS011;11993;48.748;9.166;2022-12-24T13:00:12;11.88;;;3.17;;
23632;SDS011;11993;48.748;9.166;2022-12-24T13:13:28;15.07;;;3.20;;
23632;SDS011;11993;48.748;9.166;2022-12-24T13:16:21;11.30;;;3.50;;
23632;SDS011;11993;48.748;9.166;2022-12-24T13:21:53;15.13;;;3.70;;
23632;SDS011;11993;48.748;9.166;2022-12-24T13:24:21;15.20;;;4.07;;
23632;SDS011;11993;48.748;9.166;2022-12-24T13:27:26;9.13;;;2.78;;
23632;SDS011;11993;48.748;9.166;2022-12-24T13:29:51;12.02;;;3.20;;
23632;SDS011;11993;48.748;9.166;2022-12-24T13:34:49;10.93;;;3.10;;
23632;SDS011;11993;48.748;9.166;2022-12-24T13:37:23;10.38;;;2.80;;
23632;SDS011;11993;48.748;9.166;2022-12-24T13:45:44;18.10;;;7.78;;
23632;SDS011;11993;48.748;9.166;2022-12-24T13:48:26;16.17;;;3.97;;
23632;SDS011;11993;48.748;9.166;2022-12-24T13:50:54;11.38;;;3.67;;
23632;SDS011;11993;48.748;9.166;2022-12-24T13:53:33;11.23;;;2.90;;
23632;SDS011;11993;48.748;9.166;2022-12-24T13:56:18;17.63;;;3.88;;
23632;SDS011;11993;48.748;9.166;2022-12-24T13:58:47;11.18;;;2.83;;
23632;SDS011;11993;48.748;9.166;2022-12-24T14:01:21;14.32;;;3.10;;
23632;SDS011;11993;48.748;9.166;2022-12-24T14:03:58;13.50;;;3.35;;
23632;SDS011;11993;48.748;9.166;2022-12-24T14:06:27;9.95;;;2.97;;
23632;SDS011;11993;48.748;9.166;2022-12-24T14:09:12;12.75;;;3.65;;
23632;SDS011;11993;48.748;9.166;2022-12-24T14:14:29;13.02;;;3.40;;
23632;SDS011;11993;48.748;9.166;2022-12-24T14:19:41;17.80;;;3.65;;
23632;SDS011;11993;48.748;9.166;2022-12-24T14:22:18;14.40;;;3.28;;
23632;SDS011;11993;48.748;9.166;2022-12-24T14:25:02;10.73;;;2.95;;
23632;SDS011;11993;48.748;9.166;2022-12-24T14:27:42;16.38;;;3.80;;
23632;SDS011;11993;48.748;9.166;2022-12-24T14:30:18;19.27;;;3.97;;
23632;SDS011;11993;48.748;9.166;2022-12-24T14:32:45;14.40;;;3.40;;
23632;SDS011;11993;48.748;9.166;2022-12-24T14:37:41;12.05;;;2.80;;
23632;SDS011;11993;48.748;9.166;2022-12-24T14:40:17;12.00;;;3.30;;
23632;SDS011;11993;48.748;9.166;2022-12-24T14:45:36;14.23;;;2.92;;
23632;SDS011;11993;48.748;9.166;2022-12-24T14:48:23;14.27;;;3.17;;
23632;SDS011;11993;48.748;9.166;2022-12-24T14:51:13;16.95;;;3.70;;
23632;SDS011;11993;48.748;9.166;2022-12-24T14:56:22;15.68;;;3.85;;
23632;SDS011;11993;48.748;9.166;2022-12-24T14:58:49;11.35;;;3.33;;
23632;SDS011;11993;48.748;9.166;2022-12-24T15:06:33;11.30;;;3.10;;
23632;SDS011;11993;48.748;9.166;2022-12-24T15:09:02;14.63;;;3.70;;
23632;SDS011;11993;48.748;9.166;2022-12-24T15:11:28;13.85;;;3.50;;
23632;SDS011;11993;48.748;9.166;2022-12-24T15:13:55;14.05;;;4.07;;
23632;SDS011;11993;48.748;9.166;2022-12-24T15:16:31;11.80;;;3.28;;
23632;SDS011;11993;48.748;9.166;2022-12-24T15:19:00;8.85;;;3.08;;
23632;SDS011;11993;48.748;9.166;2022-12-24T15:21:29;18.92;;;5.32;;
23632;SDS011;11993;48.748;9.166;2022-12-24T15:24:21;15.60;;;3.92;;
23632;SDS011;11993;48.748;9.166;2022-12-24T15:26:49;9.75;;;3.05;;
23632;SDS011;11993;48.748;9.166;2022-12-24T15:29:22;14.05;;;3.42;;
23632;SDS011;11993;48.748;9.166;2022-12-24T15:31:56;13.80;;;3.95;;
23632;SDS011;11993;48.748;9.166;2022-12-24T15:34:24;13.82;;;3.95;;
23632;SDS011;11993;48.748;9.166;2022-12-24T15:36:52;13.98;;;3.60;;
23632;SDS011;11993;48.748;9.166;2022-12-24T15:39:26;13.95;;;4.05;;
23632;SDS011;11993;48.748;9.166;2022-12-24T15:41:52;11.60;;;3.78;;
23632;SDS011;11993;48.748;9.166;2022-12-24T15:44:36;16.33;;;4.78;;
23632;SDS011;11993;48.748;9.166;2022-12-24T15:47:05;22.25;;;5.57;;
23632;SDS011;11993;48.748;9.166;2022-12-24T15:49:37;14.55;;;5.28;;
23632;SDS011;11993;48.748;9.166;2022-12-24T15:52:04;18.55;;;4.70;;
23632;SDS011;11993;48.748;9.166;2022-12-24T15:54:32;24.80;;;5.10;;
23632;SDS011;11993;48.748;9.166;2022-12-24T15:56:58;15.60;;;4.93;;
23632;SDS011;11993;48.748;9.166;2022-12-24T15:59:28;14.50;;;4.85;;
23632;SDS011;11993;48.748;9.166;2022-12-24T16:01:56;13.55;;;4.55;;
23632;SDS011;11993;48.748;9.166;2022-12-24T16:04:46;16.35;;;4.97;;
23632;SDS011;11993;48.748;9.166;2022-12-24T16:07:22;15.80;;;4.80;;
23632;SDS011;11993;48.748;9.166;2022-12-24T16:09:48;15.30;;;5.13;;
23632;SDS011;11993;48.748;9.166;2022-12-24T16:12:18;17.08;;;4.70;;
23632;SDS011;11993;48.748;9.166;2022-12-24T16:14:56;15.15;;;4.95;;
23632;SDS011;11993;48.748;9.166;2022-12-24T16:17:24;13.18;;;3.67;;
23632;SDS011;11993;48.748;9.166;2022-12-24T16:19:53;12.88;;;4.00;;
23632;SDS011;11993;48.748;9.166;2022-12-24T16:22:21;10.48;;;3.60;;
23632;SDS011;11993;48.748;9.166;2022-12-24T16:25:38;11.45;;;3.83;;
23632;SDS011;11993;48.748;9.166;2022-12-24T16:27:48;15.75;;;4.18;;
23632;SDS011;11993;48.748;9.166;2022-12-24T16:30:14;16.35;;;4.43;;
23632;SDS011;11993;48.748;9.166;2022-12-24T16:32:40;12.50;;;3.30;;
23632;SDS011;11993;48.748;9.166;2022-12-24T16:35:07;14.43;;;4.38;;
23632;SDS011;11993;48.748;9.166;2022-12-24T16:37:44;12.57;;;3.45;;
23632;SDS011;11993;48.748;9.166;2022-12-24T16:40:13;16.67;;;3.95;;
23632;SDS011;11993;48.748;9.166;2022-12-24T16:42:39;15.55;;;3.70;;
23632;SDS011;11993;48.748;9.166;2022-12-24T16:45:23;16.55;;;3.80;;
23632;SDS011;11993;48.748;9.166;2022-12-24T16:47:49;11.73;;;3.47;;
23632;SDS011;11993;48.748;9.166;2022-12-24T16:50:15;12.75;;;3.83;;
23632;SDS011;11993;48.748;9.166;2022-12-24T16:52:41;11.40;;;3.70;;
23632;SDS011;11993;48.748;9.166;2022-12-24T16:55:08;13.30;;;3.72;;